sensor_id;sensor_type;location;lat;lon;timestamp;pressure;altitude;pressure_sealevel;temperature;humidity
11314;BME280;5712;48.858;9.206;2023-04-22T00:00:34;97522.72;;;11.49;100.00
11314;BME280;5712;48.858;9.206;2023-04-22T00:03:02;97521.75;;;11.50;100.00
11314;BME280;5712;48.858;9.206;2023-04-22T00:05:29;97523.66;;;11.48;100.00
11314;BME280;5712;48.858;9.206;2023-04-22T00:07:55;97517.94;;;11.43;100.00
11314;BME280;5712;48.858;9.206;2023-04-22T00:10:23;97508.56;;;11.39;100.00
11314;BME280;5712;48.858;9.206;2023-04-22T00:12:50;97514.06;;;11.36;100.00
11314;BME280;5712;48.858;9.206;2023-04-22T00:15:17;97517.00;;;11.33;100.00
11314;BME280;5712;48.858;9.206;2023-04-22T00:17:45;97513.38;;;11.34;100.00
11314;BME280;5712;48.858;9.206;2023-04-22T00:20:12;97522.63;;;11.39;100.00
11314;BME280;5712;48.858;9.206;2023-04-22T00:22:39;97522.25;;;11.44;100.00
11314;BME280;5712;48.858;9.206;2023-04-22T00:25:06;97516.97;;;11.44;100.00
11314;BME280;5712;48.858;9.206;2023-04-22T00:27:34;97518.38;;;11.48;100.00
11314;BME280;5712;48.858;9.206;2023-04-22T00:30:02;97509.34;;;11.50;100.00
11314;BME280;5712;48.858;9.206;2023-04-22T00:32:28;97507.28;;;11.54;100.00
11314;BME280;5712;48.858;9.206;2023-04-22T00:34:55;97507.78;;;11.48;100.00
11314;BME280;5712;48.858;9.206;2023-04-22T00:37:21;97508.75;;;11.47;100.00
11314;BME280;5712;48.858;9.206;2023-04-22T00:39:48;97506.59;;;11.41;100.00
11314;BME280;5712;48.858;9.206;2023-04-22T00:42:15;97506.88;;;11.38;100.00
11314;BME280;5712;48.858;9.206;2023-04-22T00:44:45;97518.78;;;11.32;100.00
11314;BME280;5712;48.858;9.206;2023-04-22T00:47:12;97510.13;;;11.30;100.00
11314;BME280;5712;48.858;9.206;2023-04-22T00:49:39;97514.72;;;11.28;100.00
11314;BME280;5712;48.858;9.206;2023-04-22T00:52:05;97510.53;;;11.26;100.00
11314;BME280;5712;48.858;9.206;2023-04-22T00:54:33;97511.50;;;11.25;100.00
11314;BME280;5712;48.858;9.206;2023-04-22T00:57:01;97513.41;;;11.23;100.00
11314;BME280;5712;48.858;9.206;2023-04-22T00:59:28;97512.69;;;11.21;100.00
11314;BME280;5712;48.858;9.206;2023-04-22T01:01:56;97519.19;;;11.17;100.00
11314;BME280;5712;48.858;9.206;2023-04-22T01:04:23;97518.97;;;11.20;100.00
11314;BME280;5712;48.858;9.206;2023-04-22T01:06:50;97520.03;;;11.17;100.00
11314;BME280;5712;48.858;9.206;2023-04-22T01:09:17;97511.13;;;11.18;100.00
11314;BME280;5712;48.858;9.206;2023-04-22T01:11:45;97505.84;;;11.18;100.00
11314;BME280;5712;48.858;9.206;2023-04-22T01:14:12;97508.38;;;11.20;100.00
11314;BME280;5712;48.858;9.206;2023-04-22T01:16:39;97504.75;;;11.21;100.00
11314;BME280;5712;48.858;9.206;2023-04-22T01:19:09;97503.69;;;11.23;100.00
11314;BME280;5712;48.858;9.206;2023-04-22T01:21:37;97509.78;;;11.24;100.00
11314;BME280;5712;48.858;9.206;2023-04-22T01:24:06;97507.28;;;11.22;100.00
11314;BME280;5712;48.858;9.206;2023-04-22T01:26:33;97505.72;;;11.20;100.00
11314;BME280;5712;48.858;9.206;2023-04-22T01:29:00;97510.16;;;11.19;100.00
11314;BME280;5712;48.858;9.206;2023-04-22T01:31:29;97505.84;;;11.18;100.00
11314;BME280;5712;48.858;9.206;2023-04-22T01:33:56;97514.16;;;11.14;100.00
11314;BME280;5712;48.858;9.206;2023-04-22T01:36:23;97511.53;;;11.14;100.00
11314;BME280;5712;48.858;9.206;2023-04-22T01:38:50;97512.50;;;11.13;100.00
11314;BME280;5712;48.858;9.206;2023-04-22T01:41:18;97511.63;;;11.12;100.00
11314;BME280;5712;48.858;9.206;2023-04-22T01:43:45;97504.91;;;11.08;100.00
11314;BME280;5712;48.858;9.206;2023-04-22T01:46:12;97506.25;;;11.03;100.00
11314;BME280;5712;48.858;9.206;2023-04-22T01:48:38;97517.09;;;11.00;100.00
11314;BME280;5712;48.858;9.206;2023-04-22T01:51:05;97512.16;;;10.95;100.00
11314;BME280;5712;48.858;9.206;2023-04-22T01:53:32;97514.19;;;10.92;100.00
11314;BME280;5712;48.858;9.206;2023-04-22T01:55:58;97522.41;;;10.89;100.00
11314;BME280;5712;48.858;9.206;2023-04-22T01:58:28;97513.03;;;10.85;100.00
11314;BME280;5712;48.858;9.206;2023-04-22T02:00:55;97519.38;;;10.82;100.00
11314;BME280;5712;48.858;9.206;2023-04-22T02:03:22;97511.84;;;10.78;100.00
11314;BME280;5712;48.858;9.206;2023-04-22T02:05:48;97509.31;;;10.76;100.00
11314;BME280;5712;48.858;9.206;2023-04-22T02:08:15;97514.69;;;10.75;100.00
11314;BME280;5712;48.858;9.206;2023-04-22T02:10:41;97522.88;;;10.72;100.00
11314;BME280;5712;48.858;9.206;2023-04-22T02:13:08;97522.88;;;10.72;100.00
11314;BME280;5712;48.858;9.206;2023-04-22T02:15:35;97523.13;;;10.69;100.00
11314;BME280;5712;48.858;9.206;2023-04-22T02:18:04;97532.28;;;10.65;100.00
11314;BME280;5712;48.858;9.206;2023-04-22T02:20:30;97534.53;;;10.58;100.00
11314;BME280;5712;48.858;9.206;2023-04-22T02:22:57;97534.91;;;10.54;100.00
11314;BME280;5712;48.858;9.206;2023-04-22T02:25:24;97540.94;;;10.45;100.00
11314;BME280;5712;48.858;9.206;2023-04-22T02:27:51;97538.63;;;10.40;100.00
11314;BME280;5712;48.858;9.206;2023-04-22T02:30:17;97541.63;;;10.36;100.00
11314;BME280;5712;48.858;9.206;2023-04-22T02:32:45;97535.84;;;10.31;100.00
11314;BME280;5712;48.858;9.206;2023-04-22T02:35:11;97536.81;;;10.30;100.00
11314;BME280;5712;48.858;9.206;2023-04-22T02:37:38;97537.78;;;10.29;100.00
11314;BME280;5712;48.858;9.206;2023-04-22T02:40:05;97538.75;;;10.28;100.00
11314;BME280;5712;48.858;9.206;2023-04-22T02:42:33;97532.72;;;10.26;100.00
11314;BME280;5712;48.858;9.206;2023-04-22T02:44:59;97538.25;;;10.23;100.00
11314;BME280;5712;48.858;9.206;2023-04-22T02:47:25;97534.91;;;10.21;100.00
11314;BME280;5712;48.858;9.206;2023-04-22T02:49:53;97546.88;;;10.25;100.00
11314;BME280;5712;48.858;9.206;2023-04-22T02:52:20;97545.00;;;10.27;100.00
11314;BME280;5712;48.858;9.206;2023-04-22T02:54:46;97539.47;;;10.30;100.00
11314;BME280;5712;48.858;9.206;2023-04-22T02:57:13;97544.75;;;10.30;100.00
11314;BME280;5712;48.858;9.206;2023-04-22T02:59:39;97546.53;;;10.29;100.00
11314;BME280;5712;48.858;9.206;2023-04-22T03:02:06;97543.53;;;10.23;100.00
11314;BME280;5712;48.858;9.206;2023-04-22T03:04:34;97542.06;;;10.19;100.00
11314;BME280;5712;48.858;9.206;2023-04-22T03:07:03;97537.06;;;10.16;100.00
11314;BME280;5712;48.858;9.206;2023-04-22T03:09:29;97538.13;;;10.13;100.00
11314;BME280;5712;48.858;9.206;2023-04-22T03:11:56;97534.63;;;10.13;100.00
11314;BME280;5712;48.858;9.206;2023-04-22T03:14:22;97537.41;;;10.11;100.00
11314;BME280;5712;48.858;9.206;2023-04-22T03:16:49;97535.94;;;10.07;100.00
11314;BME280;5712;48.858;9.206;2023-04-22T03:19:15;97535.53;;;10.01;100.00
11314;BME280;5712;48.858;9.206;2023-04-22T03:21:42;97531.31;;;9.98;100.00
11314;BME280;5712;48.858;9.206;2023-04-22T03:24:10;97533.34;;;9.95;100.00
11314;BME280;5712;48.858;9.206;2023-04-22T03:26:36;97523.16;;;9.90;100.00
11314;BME280;5712;48.858;9.206;2023-04-22T03:29:03;97533.09;;;9.87;100.00
11314;BME280;5712;48.858;9.206;2023-04-22T03:31:29;97532.72;;;9.80;100.00
11314;BME280;5712;48.858;9.206;2023-04-22T03:33:56;97532.13;;;9.77;100.00
11314;BME280;5712;48.858;9.206;2023-04-22T03:36:22;97533.81;;;9.78;100.00
11314;BME280;5712;48.858;9.206;2023-04-22T03:38:48;97531.44;;;9.86;100.00
11314;BME280;5712;48.858;9.206;2023-04-22T03:41:17;97543.91;;;9.84;100.00
11314;BME280;5712;48.858;9.206;2023-04-22T03:43:43;97541.22;;;9.73;100.00
11314;BME280;5712;48.858;9.206;2023-04-22T03:46:09;97544.34;;;9.67;100.00
11314;BME280;5712;48.858;9.206;2023-04-22T03:48:36;97539.78;;;9.69;100.00
11314;BME280;5712;48.858;9.206;2023-04-22T03:51:03;97530.28;;;9.66;100.00
11314;BME280;5712;48.858;9.206;2023-04-22T03:53:29;97536.56;;;9.76;100.00
11314;BME280;5712;48.858;9.206;2023-04-22T03:55:55;97536.91;;;9.72;100.00
11314;BME280;5712;48.858;9.206;2023-04-22T03:58:23;97541.19;;;9.62;100.00
11314;BME280;5712;48.858;9.206;2023-04-22T04:00:50;97542.72;;;9.53;100.00
11314;BME280;5712;48.858;9.206;2023-04-22T04:03:16;97545.69;;;9.49;100.00
11314;BME280;5712;48.858;9.206;2023-04-22T04:05:43;97541.38;;;9.48;100.00
11314;BME280;5712;48.858;9.206;2023-04-22T04:08:09;97539.47;;;9.50;100.00
11314;BME280;5712;48.858;9.206;2023-04-22T04:10:36;97540.31;;;9.50;100.00
11314;BME280;5712;48.858;9.206;2023-04-22T04:13:03;97539.97;;;9.55;100.00
11314;BME280;5712;48.858;9.206;2023-04-22T04:15:31;97532.06;;;9.55;100.00
11314;BME280;5712;48.858;9.206;2023-04-22T04:17:58;97532.66;;;9.58;100.00
11314;BME280;5712;48.858;9.206;2023-04-22T04:20:25;97528.22;;;9.59;100.00
11314;BME280;5712;48.858;9.206;2023-04-22T04:22:51;97536.25;;;9.57;100.00
11314;BME280;5712;48.858;9.206;2023-04-22T04:25:18;97531.19;;;9.54;100.00
11314;BME280;5712;48.858;9.206;2023-04-22T04:27:45;97521.72;;;9.52;100.00
11314;BME280;5712;48.858;9.206;2023-04-22T04:30:12;97525.91;;;9.54;100.00
11314;BME280;5712;48.858;9.206;2023-04-22T04:32:41;97522.13;;;9.58;100.00
11314;BME280;5712;48.858;9.206;2023-04-22T04:35:10;97530.63;;;9.62;100.00
11314;BME280;5712;48.858;9.206;2023-04-22T04:37:37;97535.56;;;9.66;100.00
11314;BME280;5712;48.858;9.206;2023-04-22T04:40:05;97532.22;;;9.64;100.00
11314;BME280;5712;48.858;9.206;2023-04-22T04:42:32;97527.53;;;9.68;100.00
11314;BME280;5712;48.858;9.206;2023-04-22T04:44:59;97525.88;;;9.67;100.00
11314;BME280;5712;48.858;9.206;2023-04-22T04:47:25;97517.19;;;9.65;100.00
11314;BME280;5712;48.858;9.206;2023-04-22T04:49:53;97520.34;;;9.70;100.00
11314;BME280;5712;48.858;9.206;2023-04-22T04:52:22;97514.84;;;9.73;100.00
11314;BME280;5712;48.858;9.206;2023-04-22T04:54:49;97532.13;;;9.77;100.00
11314;BME280;5712;48.858;9.206;2023-04-22T04:57:15;97531.91;;;9.80;100.00
11314;BME280;5712;48.858;9.206;2023-04-22T04:59:42;97518.44;;;9.83;100.00
11314;BME280;5712;48.858;9.206;2023-04-22T05:02:08;97521.84;;;9.85;100.00
11314;BME280;5712;48.858;9.206;2023-04-22T05:04:35;97518.13;;;9.87;100.00
11314;BME280;5712;48.858;9.206;2023-04-22T05:07:02;97516.41;;;9.86;100.00
11314;BME280;5712;48.858;9.206;2023-04-22T05:09:29;97523.41;;;9.87;100.00
11314;BME280;5712;48.858;9.206;2023-04-22T05:12:01;97516.31;;;9.88;100.00
11314;BME280;5712;48.858;9.206;2023-04-22T05:14:27;97525.44;;;9.95;100.00
11314;BME280;5712;48.858;9.206;2023-04-22T05:16:54;97517.66;;;9.93;100.00
11314;BME280;5712;48.858;9.206;2023-04-22T05:19:20;97530.72;;;9.95;100.00
11314;BME280;5712;48.858;9.206;2023-04-22T05:21:47;97513.19;;;9.94;100.00
11314;BME280;5712;48.858;9.206;2023-04-22T05:24:15;97526.41;;;9.94;100.00
11314;BME280;5712;48.858;9.206;2023-04-22T05:26:41;97524.38;;;9.97;100.00
11314;BME280;5712;48.858;9.206;2023-04-22T05:29:08;97524.00;;;10.02;100.00
11314;BME280;5712;48.858;9.206;2023-04-22T05:31:34;97527.44;;;10.04;100.00
11314;BME280;5712;48.858;9.206;2023-04-22T05:34:01;97527.91;;;10.09;100.00
11314;BME280;5712;48.858;9.206;2023-04-22T05:36:27;97526.00;;;10.11;100.00
11314;BME280;5712;48.858;9.206;2023-04-22T05:38:54;97523.84;;;10.16;100.00
11314;BME280;5712;48.858;9.206;2023-04-22T05:41:21;97531.78;;;10.16;100.00
11314;BME280;5712;48.858;9.206;2023-04-22T05:43:48;97533.09;;;10.21;100.00
11314;BME280;5712;48.858;9.206;2023-04-22T05:46:14;97538.97;;;10.25;100.00
11314;BME280;5712;48.858;9.206;2023-04-22T05:48:41;97529.84;;;10.29;100.00
11314;BME280;5712;48.858;9.206;2023-04-22T05:51:07;97538.28;;;10.34;100.00
11314;BME280;5712;48.858;9.206;2023-04-22T05:53:34;97540.06;;;10.44;100.00
11314;BME280;5712;48.858;9.206;2023-04-22T05:56:00;97539.59;;;10.50;100.00
11314;BME280;5712;48.858;9.206;2023-04-22T05:58:28;97540.56;;;10.60;100.00
11314;BME280;5712;48.858;9.206;2023-04-22T06:00:55;97542.59;;;10.68;100.00
11314;BME280;5712;48.858;9.206;2023-04-22T06:03:21;97541.38;;;10.83;100.00
11314;BME280;5712;48.858;9.206;2023-04-22T06:05:48;97545.94;;;10.92;100.00
11314;BME280;5712;48.858;9.206;2023-04-22T06:08:15;97538.19;;;11.11;100.00
11314;BME280;5712;48.858;9.206;2023-04-22T06:10:43;97534.75;;;11.42;100.00
11314;BME280;5712;48.858;9.206;2023-04-22T06:13:10;97538.28;;;11.74;100.00
11314;BME280;5712;48.858;9.206;2023-04-22T06:15:38;97531.28;;;11.93;100.00
11314;BME280;5712;48.858;9.206;2023-04-22T06:18:04;97537.31;;;12.16;100.00
11314;BME280;5712;48.858;9.206;2023-04-22T06:20:31;97534.72;;;12.46;100.00
11314;BME280;5712;48.858;9.206;2023-04-22T06:23:00;97531.41;;;12.63;100.00
11314;BME280;5712;48.858;9.206;2023-04-22T06:25:26;97524.88;;;12.67;100.00
11314;BME280;5712;48.858;9.206;2023-04-22T06:27:53;97529.50;;;12.65;100.00
11314;BME280;5712;48.858;9.206;2023-04-22T06:30:19;97525.88;;;12.66;100.00
11314;BME280;5712;48.858;9.206;2023-04-22T06:32:47;97534.59;;;12.57;100.00
11314;BME280;5712;48.858;9.206;2023-04-22T06:35:14;97538.69;;;12.61;100.00
11314;BME280;5712;48.858;9.206;2023-04-22T06:37:40;97544.56;;;12.64;100.00
11314;BME280;5712;48.858;9.206;2023-04-22T06:40:08;97546.25;;;12.75;100.00
11314;BME280;5712;48.858;9.206;2023-04-22T06:42:35;97544.22;;;12.88;100.00
11314;BME280;5712;48.858;9.206;2023-04-22T06:45:02;97548.03;;;12.95;100.00
11314;BME280;5712;48.858;9.206;2023-04-22T06:47:29;97548.09;;;13.04;100.00
11314;BME280;5712;48.858;9.206;2023-04-22T06:49:57;97553.44;;;13.14;100.00
11314;BME280;5712;48.858;9.206;2023-04-22T06:52:23;97548.53;;;13.19;100.00
11314;BME280;5712;48.858;9.206;2023-04-22T06:54:50;97541.97;;;13.23;100.00
11314;BME280;5712;48.858;9.206;2023-04-22T06:57:16;97542.53;;;13.17;100.00
11314;BME280;5712;48.858;9.206;2023-04-22T06:59:43;97547.84;;;13.17;100.00
11314;BME280;5712;48.858;9.206;2023-04-22T07:02:10;97550.34;;;13.18;100.00
11314;BME280;5712;48.858;9.206;2023-04-22T07:04:37;97538.91;;;13.27;100.00
11314;BME280;5712;48.858;9.206;2023-04-22T07:07:04;97539.66;;;13.39;100.00
11314;BME280;5712;48.858;9.206;2023-04-22T07:09:31;97539.66;;;13.48;100.00
11314;BME280;5712;48.858;9.206;2023-04-22T07:11:58;97542.75;;;13.63;100.00
11314;BME280;5712;48.858;9.206;2023-04-22T07:14:25;97547.34;;;13.70;100.00
11314;BME280;5712;48.858;9.206;2023-04-22T07:16:52;97541.75;;;13.83;100.00
11314;BME280;5712;48.858;9.206;2023-04-22T07:19:19;97536.72;;;13.99;100.00
11314;BME280;5712;48.858;9.206;2023-04-22T07:21:46;97524.81;;;14.03;100.00
11314;BME280;5712;48.858;9.206;2023-04-22T07:24:14;97528.75;;;14.08;100.00
11314;BME280;5712;48.858;9.206;2023-04-22T07:26:41;97526.66;;;14.12;100.00
11314;BME280;5712;48.858;9.206;2023-04-22T07:29:08;97522.16;;;14.22;100.00
11314;BME280;5712;48.858;9.206;2023-04-22T07:31:35;97518.50;;;14.42;100.00
11314;BME280;5712;48.858;9.206;2023-04-22T07:34:02;97505.16;;;14.51;99.57
11314;BME280;5712;48.858;9.206;2023-04-22T07:36:28;97510.44;;;14.61;99.23
11314;BME280;5712;48.858;9.206;2023-04-22T07:38:56;97513.63;;;14.74;99.14
11314;BME280;5712;48.858;9.206;2023-04-22T07:41:24;97517.75;;;14.86;99.43
11314;BME280;5712;48.858;9.206;2023-04-22T07:43:51;97509.38;;;15.08;98.08
11314;BME280;5712;48.858;9.206;2023-04-22T07:46:17;97495.72;;;15.20;94.37
11314;BME280;5712;48.858;9.206;2023-04-22T07:48:45;97500.41;;;15.36;93.44
11314;BME280;5712;48.858;9.206;2023-04-22T07:51:12;97510.91;;;15.55;91.83
11314;BME280;5712;48.858;9.206;2023-04-22T07:53:38;97501.50;;;15.78;88.46
11314;BME280;5712;48.858;9.206;2023-04-22T07:56:05;97495.56;;;15.84;85.93
11314;BME280;5712;48.858;9.206;2023-04-22T07:58:33;97488.31;;;15.94;82.23
11314;BME280;5712;48.858;9.206;2023-04-22T08:00:59;97486.00;;;15.98;82.29
11314;BME280;5712;48.858;9.206;2023-04-22T08:03:26;97499.69;;;16.03;83.28
11314;BME280;5712;48.858;9.206;2023-04-22T08:05:52;97512.84;;;16.22;83.68
11314;BME280;5712;48.858;9.206;2023-04-22T08:08:20;97506.06;;;16.28;81.08
11314;BME280;5712;48.858;9.206;2023-04-22T08:10:47;97508.03;;;16.43;80.36
11314;BME280;5712;48.858;9.206;2023-04-22T08:13:13;97492.59;;;16.55;76.29
11314;BME280;5712;48.858;9.206;2023-04-22T08:15:41;97486.25;;;16.56;74.17
11314;BME280;5712;48.858;9.206;2023-04-22T08:18:08;97487.94;;;16.57;73.98
11314;BME280;5712;48.858;9.206;2023-04-22T08:20:35;97489.78;;;16.56;74.08
11314;BME280;5712;48.858;9.206;2023-04-22T08:23:01;97489.09;;;16.54;74.14
11314;BME280;5712;48.858;9.206;2023-04-22T08:25:28;97492.91;;;16.52;75.20
11314;BME280;5712;48.858;9.206;2023-04-22T08:27:55;97497.25;;;16.53;75.53
11314;BME280;5712;48.858;9.206;2023-04-22T08:30:22;97496.41;;;16.52;75.66
11314;BME280;5712;48.858;9.206;2023-04-22T08:32:50;97495.63;;;16.60;75.70
11314;BME280;5712;48.858;9.206;2023-04-22T08:35:17;97501.09;;;16.58;76.70
11314;BME280;5712;48.858;9.206;2023-04-22T08:37:44;97497.63;;;16.58;76.22
11314;BME280;5712;48.858;9.206;2023-04-22T08:40:10;97501.91;;;16.51;75.99
11314;BME280;5712;48.858;9.206;2023-04-22T08:42:37;97511.31;;;16.63;77.42
11314;BME280;5712;48.858;9.206;2023-04-22T08:45:04;97504.25;;;16.79;77.81
11314;BME280;5712;48.858;9.206;2023-04-22T08:47:31;97501.84;;;17.02;76.53
11314;BME280;5712;48.858;9.206;2023-04-22T08:50:01;97496.50;;;17.02;75.66
11314;BME280;5712;48.858;9.206;2023-04-22T08:52:29;97511.53;;;17.11;77.14
11314;BME280;5712;48.858;9.206;2023-04-22T08:54:55;97498.91;;;17.29;73.96
11314;BME280;5712;48.858;9.206;2023-04-22T08:57:22;97491.84;;;17.53;73.63
11314;BME280;5712;48.858;9.206;2023-04-22T08:59:49;97486.66;;;17.60;71.49
11314;BME280;5712;48.858;9.206;2023-04-22T09:02:19;97507.25;;;17.83;75.90
11314;BME280;5712;48.858;9.206;2023-04-22T09:04:47;97479.84;;;18.13;72.04
11314;BME280;5712;48.858;9.206;2023-04-22T09:07:20;97476.00;;;18.40;72.63
11314;BME280;5712;48.858;9.206;2023-04-22T09:09:48;97482.97;;;18.57;74.03
11314;BME280;5712;48.858;9.206;2023-04-22T09:12:14;97467.38;;;18.68;71.12
11314;BME280;5712;48.858;9.206;2023-04-22T09:14:42;97471.84;;;18.84;71.33
11314;BME280;5712;48.858;9.206;2023-04-22T09:17:09;97457.19;;;19.02;69.44
11314;BME280;5712;48.858;9.206;2023-04-22T09:19:36;97460.69;;;19.11;69.58
11314;BME280;5712;48.858;9.206;2023-04-22T09:22:02;97428.34;;;19.20;64.76
11314;BME280;5712;48.858;9.206;2023-04-22T09:24:31;97433.63;;;19.36;64.86
11314;BME280;5712;48.858;9.206;2023-04-22T09:27:00;97418.97;;;19.69;62.00
11314;BME280;5712;48.858;9.206;2023-04-22T09:29:29;97420.88;;;19.83;61.11
11314;BME280;5712;48.858;9.206;2023-04-22T09:31:55;97405.34;;;19.93;58.42
11314;BME280;5712;48.858;9.206;2023-04-22T09:34:22;97398.31;;;19.92;57.83
11314;BME280;5712;48.858;9.206;2023-04-22T09:36:50;97394.63;;;19.93;57.08
11314;BME280;5712;48.858;9.206;2023-04-22T09:39:16;97428.38;;;20.10;61.03
11314;BME280;5712;48.858;9.206;2023-04-22T09:41:44;97414.81;;;20.26;59.03
11314;BME280;5712;48.858;9.206;2023-04-22T09:44:19;97406.56;;;20.13;57.33
11314;BME280;5712;48.858;9.206;2023-04-22T09:46:48;97393.22;;;20.20;56.40
11314;BME280;5712;48.858;9.206;2023-04-22T09:49:15;97386.13;;;20.04;54.87
11314;BME280;5712;48.858;9.206;2023-04-22T09:51:41;97405.25;;;20.09;57.03
11314;BME280;5712;48.858;9.206;2023-04-22T09:54:09;97399.88;;;20.09;57.40
11314;BME280;5712;48.858;9.206;2023-04-22T09:56:45;97414.50;;;20.21;58.69
11314;BME280;5712;48.858;9.206;2023-04-22T09:59:13;97429.78;;;20.35;60.90
11314;BME280;5712;48.858;9.206;2023-04-22T10:01:41;97419.81;;;20.44;60.11
11314;BME280;5712;48.858;9.206;2023-04-22T10:04:08;97412.78;;;20.43;59.15
11314;BME280;5712;48.858;9.206;2023-04-22T10:06:35;97415.66;;;20.56;60.35
11314;BME280;5712;48.858;9.206;2023-04-22T10:09:02;97413.41;;;20.59;60.48
11314;BME280;5712;48.858;9.206;2023-04-22T10:11:30;97399.44;;;20.49;58.93
11314;BME280;5712;48.858;9.206;2023-04-22T10:13:58;97388.78;;;20.41;57.79
11314;BME280;5712;48.858;9.206;2023-04-22T10:16:26;97388.50;;;20.51;58.20
11314;BME280;5712;48.858;9.206;2023-04-22T10:18:55;97398.97;;;20.60;58.71
11314;BME280;5712;48.858;9.206;2023-04-22T10:21:23;97381.75;;;20.55;56.95
11314;BME280;5712;48.858;9.206;2023-04-22T10:23:50;97395.38;;;20.68;58.46
11314;BME280;5712;48.858;9.206;2023-04-22T10:26:37;97396.63;;;20.86;57.50
11314;BME280;5712;48.858;9.206;2023-04-22T10:29:05;97399.16;;;21.02;58.38
11314;BME280;5712;48.858;9.206;2023-04-22T10:31:36;97361.66;;;21.15;54.48
11314;BME280;5712;48.858;9.206;2023-04-22T10:34:13;97359.47;;;21.04;53.91
11314;BME280;5712;48.858;9.206;2023-04-22T10:36:56;97378.56;;;21.09;56.04
11314;BME280;5712;48.858;9.206;2023-04-22T10:39:24;97375.91;;;21.30;55.83
11314;BME280;5712;48.858;9.206;2023-04-22T10:41:57;97367.44;;;21.33;55.02
11314;BME280;5712;48.858;9.206;2023-04-22T10:44:44;97379.22;;;21.53;56.02
11314;BME280;5712;48.858;9.206;2023-04-22T10:47:12;97348.66;;;21.75;53.78
11314;BME280;5712;48.858;9.206;2023-04-22T10:49:49;97328.19;;;21.81;52.40
11314;BME280;5712;48.858;9.206;2023-04-22T10:52:26;97323.50;;;21.89;51.16
11314;BME280;5712;48.858;9.206;2023-04-22T10:54:57;97344.81;;;22.12;53.05
11314;BME280;5712;48.858;9.206;2023-04-22T10:57:38;97346.91;;;22.16;53.57
11314;BME280;5712;48.858;9.206;2023-04-22T11:00:19;97334.47;;;22.15;52.63
11314;BME280;5712;48.858;9.206;2023-04-22T11:02:50;97319.19;;;22.22;51.03
11314;BME280;5712;48.858;9.206;2023-04-22T11:05:18;97329.19;;;22.35;52.04
11314;BME280;5712;48.858;9.206;2023-04-22T11:07:47;97310.16;;;22.36;50.69
11314;BME280;5712;48.858;9.206;2023-04-22T11:10:30;97312.25;;;22.41;50.35
11314;BME280;5712;48.858;9.206;2023-04-22T11:12:57;97280.94;;;22.33;47.93
11314;BME280;5712;48.858;9.206;2023-04-22T11:15:25;97307.56;;;22.49;50.16
11314;BME280;5712;48.858;9.206;2023-04-22T11:17:53;97296.22;;;22.60;49.14
11314;BME280;5712;48.858;9.206;2023-04-22T11:20:20;97286.31;;;22.67;48.21
11314;BME280;5712;48.858;9.206;2023-04-22T11:22:49;97302.69;;;22.72;48.56
11314;BME280;5712;48.858;9.206;2023-04-22T11:25:16;97256.50;;;22.82;45.67
11314;BME280;5712;48.858;9.206;2023-04-22T11:27:43;97255.66;;;22.81;44.95
11314;BME280;5712;48.858;9.206;2023-04-22T11:30:11;97232.41;;;22.61;43.47
11314;BME280;5712;48.858;9.206;2023-04-22T11:32:41;97247.69;;;22.47;44.49
11314;BME280;5712;48.858;9.206;2023-04-22T11:35:10;97256.00;;;22.52;45.79
11314;BME280;5712;48.858;9.206;2023-04-22T11:37:41;97292.16;;;22.77;47.92
11314;BME280;5712;48.858;9.206;2023-04-22T11:40:09;97230.41;;;22.82;43.32
11314;BME280;5712;48.858;9.206;2023-04-22T11:42:36;97193.06;;;22.79;41.31
11314;BME280;5712;48.858;9.206;2023-04-22T11:45:04;97219.22;;;22.85;42.85
11314;BME280;5712;48.858;9.206;2023-04-22T11:47:32;97232.22;;;22.75;43.45
11314;BME280;5712;48.858;9.206;2023-04-22T11:50:02;97208.22;;;22.87;42.16
11314;BME280;5712;48.858;9.206;2023-04-22T11:52:41;97186.69;;;23.00;40.13
11314;BME280;5712;48.858;9.206;2023-04-22T11:55:09;97190.69;;;23.17;39.52
11314;BME280;5712;48.858;9.206;2023-04-22T11:57:36;97167.84;;;23.06;37.51
11314;BME280;5712;48.858;9.206;2023-04-22T12:00:03;97153.94;;;23.09;37.06
11314;BME280;5712;48.858;9.206;2023-04-22T12:02:31;97186.72;;;23.26;38.55
11314;BME280;5712;48.858;9.206;2023-04-22T12:04:58;97199.38;;;23.38;39.03
11314;BME280;5712;48.858;9.206;2023-04-22T12:07:26;97173.03;;;23.27;37.04
11314;BME280;5712;48.858;9.206;2023-04-22T12:09:53;97166.22;;;23.31;36.62
11314;BME280;5712;48.858;9.206;2023-04-22T12:12:23;97186.09;;;23.56;38.29
11314;BME280;5712;48.858;9.206;2023-04-22T12:14:50;97143.56;;;23.45;35.94
11314;BME280;5712;48.858;9.206;2023-04-22T12:17:21;97172.41;;;23.51;37.23
11314;BME280;5712;48.858;9.206;2023-04-22T12:19:52;97167.00;;;23.45;36.84
11314;BME280;5712;48.858;9.206;2023-04-22T12:22:23;97167.84;;;23.39;37.08
11314;BME280;5712;48.858;9.206;2023-04-22T12:24:51;97179.47;;;23.39;37.32
11314;BME280;5712;48.858;9.206;2023-04-22T12:27:18;97185.69;;;23.33;38.26
11314;BME280;5712;48.858;9.206;2023-04-22T12:29:50;97204.31;;;23.15;39.38
11314;BME280;5712;48.858;9.206;2023-04-22T12:32:18;97208.06;;;23.01;39.66
11314;BME280;5712;48.858;9.206;2023-04-22T12:34:45;97165.75;;;22.95;36.86
11314;BME280;5712;48.858;9.206;2023-04-22T12:37:11;97159.94;;;23.11;36.26
11314;BME280;5712;48.858;9.206;2023-04-22T12:39:38;97188.56;;;23.45;37.67
11314;BME280;5712;48.858;9.206;2023-04-22T12:42:06;97177.81;;;23.51;37.10
11314;BME280;5712;48.858;9.206;2023-04-22T12:44:32;97196.88;;;23.56;38.63
11314;BME280;5712;48.858;9.206;2023-04-22T12:46:59;97194.19;;;23.56;38.00
11314;BME280;5712;48.858;9.206;2023-04-22T12:49:26;97200.22;;;23.52;38.80
11314;BME280;5712;48.858;9.206;2023-04-22T12:51:52;97174.06;;;23.39;36.88
11314;BME280;5712;48.858;9.206;2023-04-22T12:54:20;97184.41;;;23.03;38.58
11314;BME280;5712;48.858;9.206;2023-04-22T12:56:47;97164.03;;;22.68;37.25
11314;BME280;5712;48.858;9.206;2023-04-22T12:59:15;97182.72;;;22.63;37.91
11314;BME280;5712;48.858;9.206;2023-04-22T13:01:41;97183.09;;;22.60;38.83
11314;BME280;5712;48.858;9.206;2023-04-22T13:04:08;97210.88;;;22.61;40.17
11314;BME280;5712;48.858;9.206;2023-04-22T13:06:35;97188.47;;;22.60;38.88
11314;BME280;5712;48.858;9.206;2023-04-22T13:09:02;97183.69;;;22.49;38.25